Powellsville, North Carolina
Current Conditions -  °F | °C
As of 10:55 AM on Wednesday 28 Jan 2015 (Local Time) from KASJ Reporting Station
Clear Clear  
Wind Chill: 25°   Ceiling: Unl
Heat Index: 34°   Visibility: 10mi
Dew Point:   Wind: 13mph
Humidity: 36%   Direction: 350°N
Pressure: 30.24"   Gusts: 21mph
Location:  36.23°N, 76.93°W
Report Text: KASJ 281555Z AUTO 35011G18KT 10SM CLR 01/M13 A3024 RMK AO2 T00101127
Loading
Personal Weather Stations






























Interactive Weather Map New forecast layout! Learn more

10-Day Weather Forecast

Advertisements
Track Severe Weather on mobile